createdAt,value
2022-09-10T00:01:59.519Z,17.40
2022-09-10T00:04:27.581Z,17.40
2022-09-10T00:06:55.565Z,17.40
2022-09-10T00:09:22.997Z,17.40
2022-09-10T00:11:50.097Z,17.40
2022-09-10T00:14:23.314Z,17.40
2022-09-10T00:16:50.371Z,17.40
2022-09-10T00:19:17.939Z,17.50
2022-09-10T00:21:45.127Z,17.50
2022-09-10T00:24:11.928Z,17.50
2022-09-10T00:26:39.508Z,17.50
2022-09-10T00:29:10.455Z,17.50
2022-09-10T00:31:37.545Z,17.50
2022-09-10T00:34:05.678Z,17.40
2022-09-10T00:36:43.089Z,17.40
2022-09-10T00:39:17.544Z,17.40
2022-09-10T00:41:46.646Z,17.40
2022-09-10T00:44:41.578Z,17.30
2022-09-10T00:47:17.163Z,17.40
2022-09-10T00:49:51.752Z,17.40
2022-09-10T00:52:19.759Z,17.40
2022-09-10T00:54:47.916Z,17.30
2022-09-10T00:57:20.289Z,17.30
2022-09-10T00:59:53.660Z,17.40
2022-09-10T01:02:21.716Z,17.40
2022-09-10T01:04:49.040Z,17.40
2022-09-10T01:07:16.051Z,17.40
2022-09-10T01:09:43.613Z,17.40
2022-09-10T01:12:16.413Z,17.40
2022-09-10T01:14:58.795Z,17.40
2022-09-10T01:17:58.625Z,17.40
2022-09-10T01:20:36.641Z,17.30
2022-09-10T01:23:21.334Z,17.30
2022-09-10T01:26:14.652Z,17.30
2022-09-10T01:28:56.569Z,17.30
2022-09-10T01:35:19.879Z,17.30
2022-09-10T01:37:57.543Z,17.20
2022-09-10T01:40:29.773Z,17.20
2022-09-10T01:43:04.726Z,17.20
2022-09-10T01:45:55.301Z,17.20
2022-09-10T01:48:51.064Z,17.20
2022-09-10T01:51:42.499Z,17.20
2022-09-10T01:54:45.621Z,17.20
2022-09-10T01:57:12.540Z,17.20
2022-09-10T01:59:50.881Z,17.10
2022-09-10T02:02:30.015Z,17.20
2022-09-10T02:04:57.997Z,17.20
2022-09-10T02:07:26.627Z,17.20
2022-09-10T02:09:54.985Z,17.20
2022-09-10T02:12:23.108Z,17.10
2022-09-10T02:14:55.396Z,17.10
2022-09-10T02:17:26.257Z,17.10
2022-09-10T02:19:54.490Z,17.10
2022-09-10T02:22:25.938Z,17.10
2022-09-10T02:24:52.801Z,17.10
2022-09-10T02:27:19.780Z,17.10
2022-09-10T02:29:46.733Z,17.10
2022-09-10T02:32:13.500Z,17.10
2022-09-10T02:34:40.359Z,17.10
2022-09-10T02:37:07.767Z,17.10
2022-09-10T02:39:35.639Z,17.10
2022-09-10T02:42:02.526Z,17.10
2022-09-10T02:44:29.347Z,17.10
2022-09-10T02:46:56.113Z,17.10
2022-09-10T02:49:22.890Z,17.10
2022-09-10T02:51:50.637Z,17.10
2022-09-10T02:54:19.988Z,17.10
2022-09-10T02:56:50.337Z,17.10
2022-09-10T02:59:20.390Z,17.10
2022-09-10T03:01:48.496Z,17.10
2022-09-10T03:04:16.461Z,17.00
2022-09-10T03:06:49.299Z,17.00
2022-09-10T03:09:17.230Z,17.00
2022-09-10T03:11:44.071Z,17.00
2022-09-10T03:14:11.989Z,17.00
2022-09-10T03:16:40.211Z,17.00
2022-09-10T03:19:07.039Z,17.00
2022-09-10T03:21:35.168Z,17.00
2022-09-10T03:24:04.664Z,16.90
2022-09-10T03:26:31.985Z,16.90
2022-09-10T03:28:58.969Z,16.90
2022-09-10T03:31:27.367Z,16.90
2022-09-10T03:33:54.207Z,17.00
2022-09-10T03:36:22.895Z,17.00
2022-09-10T03:38:49.947Z,17.00
2022-09-10T03:41:17.566Z,16.90
2022-09-10T03:43:44.374Z,16.90
2022-09-10T03:46:12.102Z,16.90
2022-09-10T03:48:39.707Z,17.00
2022-09-10T03:51:06.763Z,16.90
2022-09-10T03:53:33.591Z,16.90
2022-09-10T03:56:00.423Z,16.90
2022-09-10T03:58:27.851Z,16.90
2022-09-10T04:00:54.780Z,16.90
2022-09-10T04:03:21.681Z,16.90
2022-09-10T04:05:48.485Z,16.90
2022-09-10T04:08:15.871Z,16.90
2022-09-10T04:10:44.374Z,16.90
2022-09-10T04:13:11.792Z,16.90
2022-09-10T04:15:39.114Z,16.90
2022-09-10T04:18:06.982Z,16.90
2022-09-10T04:20:34.546Z,16.90
2022-09-10T04:23:01.601Z,16.90
2022-09-10T04:25:28.385Z,16.90
2022-09-10T04:27:55.290Z,16.90
2022-09-10T04:30:23.356Z,16.90
2022-09-10T04:32:50.400Z,16.90
2022-09-10T04:35:17.388Z,16.90
2022-09-10T04:37:44.241Z,16.80
2022-09-10T04:40:11.484Z,16.80
2022-09-10T04:42:38.402Z,16.90
2022-09-10T04:45:06.136Z,16.90
2022-09-10T04:47:34.097Z,16.90
2022-09-10T04:50:01.237Z,16.90
2022-09-10T04:52:28.976Z,16.90
2022-09-10T04:54:55.830Z,16.90
2022-09-10T04:57:23.520Z,16.90
2022-09-10T04:59:50.439Z,16.90
2022-09-10T05:02:17.298Z,16.90
2022-09-10T05:04:44.205Z,16.90
2022-09-10T05:07:11.140Z,17.00
2022-09-10T05:09:38.041Z,16.90
2022-09-10T05:12:05.257Z,16.90
2022-09-10T05:14:33.797Z,16.90
2022-09-10T05:17:01.445Z,16.90
2022-09-10T05:19:29.075Z,16.90
2022-09-10T05:21:55.925Z,16.90
2022-09-10T05:24:22.695Z,16.90
2022-09-10T05:26:49.551Z,16.90
2022-09-10T05:29:16.721Z,16.90
2022-09-10T05:31:44.461Z,16.90
2022-09-10T05:34:11.322Z,16.90
2022-09-10T05:36:38.275Z,17.00
2022-09-10T05:39:05.407Z,17.00
2022-09-10T05:41:32.484Z,17.00
2022-09-10T05:44:00.091Z,17.00
2022-09-10T05:46:28.460Z,17.00
2022-09-10T05:48:55.286Z,17.00
2022-09-10T05:51:22.649Z,17.00
2022-09-10T05:53:49.991Z,17.00
2022-09-10T05:56:16.917Z,17.00
2022-09-10T05:58:45.359Z,17.00
2022-09-10T06:01:12.596Z,17.00
2022-09-10T06:03:40.471Z,17.00
2022-09-10T06:06:07.803Z,17.00
2022-09-10T06:08:35.804Z,17.00
2022-09-10T06:11:05.812Z,17.00
2022-09-10T06:13:34.404Z,17.00
2022-09-10T06:16:01.801Z,17.00
2022-09-10T06:18:29.059Z,17.00
2022-09-10T06:21:07.919Z,17.00
2022-09-10T06:23:36.246Z,17.00
2022-09-10T06:26:06.073Z,17.00
2022-09-10T06:28:33.973Z,17.00
2022-09-10T06:31:03.616Z,17.00
2022-09-10T06:33:31.872Z,17.00
2022-09-10T06:36:00.719Z,17.00
2022-09-10T06:38:36.891Z,17.00
2022-09-10T06:41:06.479Z,17.00
2022-09-10T06:43:37.091Z,17.00
2022-09-10T06:46:40.671Z,17.00
2022-09-10T06:49:03.032Z,17.00
2022-09-10T06:51:30.579Z,17.00
2022-09-10T06:53:57.950Z,17.00
2022-09-10T06:56:24.995Z,17.00
2022-09-10T06:58:51.939Z,17.00
2022-09-10T07:01:21.957Z,17.00
2022-09-10T07:03:53.303Z,17.00
2022-09-10T07:06:20.128Z,17.00
2022-09-10T07:08:46.934Z,17.00
2022-09-10T07:11:15.012Z,17.00
2022-09-10T07:13:45.453Z,17.00
2022-09-10T07:16:12.457Z,17.00
2022-09-10T07:18:39.373Z,17.00
2022-09-10T07:21:11.860Z,17.00
2022-09-10T07:23:41.876Z,17.00
2022-09-10T07:26:11.549Z,17.00
2022-09-10T07:28:39.854Z,17.00
2022-09-10T07:31:17.829Z,17.00
2022-09-10T07:33:45.394Z,17.00
2022-09-10T07:36:12.608Z,17.10
2022-09-10T07:38:40.871Z,17.10
2022-09-10T07:41:12.403Z,17.10
2022-09-10T07:43:43.839Z,17.10
2022-09-10T07:46:20.480Z,17.10
2022-09-10T07:48:48.699Z,17.10
2022-09-10T07:51:19.240Z,17.20
2022-09-10T07:53:50.461Z,17.20
2022-09-10T07:56:17.664Z,17.10
2022-09-10T07:58:44.906Z,17.20
2022-09-10T08:01:12.752Z,17.20
2022-09-10T08:03:40.133Z,17.10
2022-09-10T08:06:09.157Z,17.20
2022-09-10T08:08:38.690Z,17.10
2022-09-10T08:11:14.167Z,17.20
2022-09-10T08:13:42.401Z,17.20
2022-09-10T08:16:12.219Z,17.20
2022-09-10T08:18:39.795Z,17.20
2022-09-10T08:21:11.144Z,17.20
2022-09-10T08:23:41.420Z,17.20
2022-09-10T08:26:08.783Z,17.20
2022-09-10T08:28:36.453Z,17.30
2022-09-10T08:31:04.193Z,17.30
2022-09-10T08:33:39.332Z,17.30
2022-09-10T08:36:08.519Z,17.30
2022-09-10T08:38:39.831Z,17.30
2022-09-10T08:41:31.343Z,17.30
2022-09-10T08:44:00.099Z,17.40
2022-09-10T08:46:48.507Z,17.40
2022-09-10T08:49:40.924Z,17.40
2022-09-10T08:52:07.683Z,17.40
2022-09-10T08:54:43.633Z,17.40
2022-09-10T08:57:45.405Z,17.40
2022-09-10T09:00:23.520Z,17.50
2022-09-10T09:03:12.786Z,17.50
2022-09-10T09:06:04.546Z,17.50
2022-09-10T09:08:48.548Z,17.50
2022-09-10T09:11:42.866Z,17.50
2022-09-10T09:14:31.753Z,17.50
2022-09-10T09:17:24.946Z,17.50
2022-09-10T09:19:59.301Z,17.50
2022-09-10T09:22:40.777Z,17.50
2022-09-10T09:25:10.001Z,17.50
2022-09-10T09:27:41.620Z,17.50
2022-09-10T09:30:35.596Z,17.50
2022-09-10T09:33:12.557Z,17.50
2022-09-10T09:35:50.862Z,17.50
2022-09-10T09:38:26.677Z,17.50
2022-09-10T09:41:00.308Z,17.50
2022-09-10T09:43:55.779Z,17.50
2022-09-10T09:46:24.388Z,17.60
2022-09-10T09:49:00.505Z,17.50
2022-09-10T09:51:35.250Z,17.60
2022-09-10T09:57:02.967Z,17.80
2022-09-10T09:59:32.136Z,17.80
2022-09-10T10:02:15.394Z,17.80
2022-09-10T10:04:54.644Z,17.80
2022-09-10T10:07:32.985Z,17.70
2022-09-10T10:10:03.810Z,17.70
2022-09-10T10:12:31.707Z,17.80
2022-09-10T10:15:00.414Z,17.80
2022-09-10T10:17:37.867Z,17.90
2022-09-10T10:20:11.048Z,17.90
2022-09-10T10:22:46.512Z,17.90
2022-09-10T10:25:34.240Z,17.90
2022-09-10T10:28:01.284Z,17.90
2022-09-10T10:30:30.129Z,17.80
2022-09-10T10:33:03.048Z,17.80
2022-09-10T10:35:59.875Z,17.80
2022-09-10T10:38:48.014Z,17.90
2022-09-10T10:41:20.461Z,17.80
2022-09-10T10:44:12.691Z,17.80
2022-09-10T10:46:54.267Z,17.80
2022-09-10T10:49:35.608Z,17.80
2022-09-10T10:52:20.007Z,17.90
2022-09-10T10:55:12.853Z,17.90
2022-09-10T10:57:55.406Z,17.90
2022-09-10T11:00:22.397Z,17.90
2022-09-10T11:03:45.134Z,18.00
2022-09-10T11:06:18.834Z,18.00
2022-09-10T11:08:55.329Z,17.90
2022-09-10T11:11:31.845Z,17.90
2022-09-10T11:14:27.283Z,17.80
2022-09-10T11:17:03.750Z,17.80
2022-09-10T11:19:39.486Z,17.80
2022-09-10T11:22:27.874Z,17.70
2022-09-10T11:24:57.550Z,17.70
2022-09-10T11:27:32.241Z,17.70
2022-09-10T11:30:04.325Z,17.70
2022-09-10T11:32:41.527Z,17.80
2022-09-10T11:35:31.549Z,17.80
2022-09-10T11:38:18.618Z,17.80
2022-09-10T11:41:09.267Z,17.80
2022-09-10T11:43:54.954Z,17.80
2022-09-10T11:46:35.817Z,17.70
2022-09-10T11:49:22.949Z,17.70
2022-09-10T11:51:50.247Z,17.60
2022-09-10T11:54:28.315Z,17.70
2022-09-10T11:57:13.238Z,17.70
2022-09-10T11:59:40.897Z,17.80
2022-09-10T12:02:45.462Z,17.80
2022-09-10T12:05:30.131Z,17.60
2022-09-10T12:08:33.672Z,17.60
2022-09-10T12:11:18.963Z,17.50
2022-09-10T12:13:46.997Z,17.50
2022-09-10T12:16:29.497Z,17.60
2022-09-10T12:18:57.750Z,17.60
2022-09-10T12:21:36.470Z,17.60
2022-09-10T12:24:26.156Z,17.60
2022-09-10T12:26:54.420Z,17.60
2022-09-10T12:29:40.846Z,17.70
2022-09-10T12:32:19.957Z,17.70
2022-09-10T12:34:51.138Z,17.70
2022-09-10T12:37:21.313Z,17.60
2022-09-10T12:39:49.687Z,17.60
2022-09-10T12:42:34.346Z,17.60
2022-09-10T12:45:01.319Z,17.60
2022-09-10T12:47:41.733Z,17.60
2022-09-10T12:50:29.334Z,17.50
2022-09-10T12:53:18.625Z,17.50
2022-09-10T12:56:02.146Z,17.60
2022-09-10T12:58:54.392Z,17.60
2022-09-10T13:01:39.104Z,17.70
2022-09-10T13:04:20.124Z,17.70
2022-09-10T13:06:47.928Z,17.60
2022-09-10T13:09:23.864Z,17.60
2022-09-10T13:11:54.596Z,17.60
2022-09-10T13:14:38.624Z,17.60
2022-09-10T13:17:06.288Z,17.70
2022-09-10T13:19:33.020Z,17.70
2022-09-10T13:21:59.829Z,17.70
2022-09-10T13:24:36.483Z,17.70
2022-09-10T13:27:12.663Z,17.70
2022-09-10T13:29:52.669Z,17.80
2022-09-10T13:32:39.492Z,17.80
2022-09-10T13:35:14.835Z,17.80
2022-09-10T13:37:52.683Z,17.80
2022-09-10T13:40:39.686Z,17.70
2022-09-10T13:43:34.657Z,17.70
2022-09-10T13:46:20.163Z,17.70
2022-09-10T13:48:52.937Z,17.80
2022-09-10T13:51:52.482Z,17.80
2022-09-10T13:54:29.533Z,17.80
2022-09-10T13:56:59.626Z,17.80
2022-09-10T13:59:31.106Z,17.80
2022-09-10T14:02:00.998Z,17.80
2022-09-10T14:04:32.847Z,17.90
2022-09-10T14:07:22.803Z,17.90
2022-09-10T14:09:52.928Z,17.70
2022-09-10T14:12:26.418Z,17.60
2022-09-10T14:15:00.345Z,17.70
2022-09-10T14:17:50.807Z,17.70
2022-09-10T14:20:33.419Z,17.80
2022-09-10T14:23:21.917Z,17.90
2022-09-10T14:26:08.076Z,17.90
2022-09-10T14:28:35.423Z,17.90
2022-09-10T14:31:27.512Z,17.90
2022-09-10T14:33:58.644Z,17.90
2022-09-10T14:36:28.800Z,17.90
2022-09-10T14:39:15.191Z,17.90
2022-09-10T14:41:42.527Z,17.90
2022-09-10T14:44:15.479Z,17.90
2022-09-10T14:47:10.791Z,17.90
2022-09-10T14:49:40.828Z,17.80
2022-09-10T14:52:08.033Z,17.80
2022-09-10T14:54:35.097Z,17.80
2022-09-10T14:57:13.982Z,17.80
2022-09-10T14:59:46.429Z,17.80
2022-09-10T15:02:25.711Z,17.80
2022-09-10T15:04:52.738Z,17.90
2022-09-10T15:07:19.676Z,17.90
2022-09-10T15:09:46.920Z,17.90
2022-09-10T15:12:20.016Z,17.90
2022-09-10T15:14:46.785Z,18.00
2022-09-10T15:17:14.872Z,18.00
2022-09-10T15:19:41.851Z,18.00
2022-09-10T15:22:20.771Z,18.00
2022-09-10T15:25:08.642Z,18.00
2022-09-10T15:27:34.722Z,18.00
2022-09-10T15:30:01.584Z,18.00
2022-09-10T15:32:28.363Z,18.00
2022-09-10T15:34:55.160Z,18.10
2022-09-10T15:37:23.158Z,18.10
2022-09-10T15:39:51.298Z,18.00
2022-09-10T15:42:18.353Z,18.00
2022-09-10T15:44:45.112Z,17.90
2022-09-10T15:47:11.924Z,17.90
2022-09-10T15:49:38.764Z,17.90
2022-09-10T15:52:05.571Z,17.90
2022-09-10T15:54:34.156Z,17.90
2022-09-10T15:57:01.260Z,17.90
2022-09-10T15:59:28.576Z,17.90
2022-09-10T16:01:55.456Z,17.90
2022-09-10T16:04:23.031Z,17.90
2022-09-10T16:06:49.944Z,17.90
2022-09-10T16:09:16.952Z,17.80
2022-09-10T16:11:44.413Z,17.80
2022-09-10T16:14:13.600Z,17.90
2022-09-10T16:16:41.122Z,17.90
2022-09-10T16:19:09.222Z,17.90
2022-09-10T16:21:37.639Z,17.90
2022-09-10T16:24:05.722Z,17.90
2022-09-10T16:26:40.452Z,17.80
2022-09-10T16:29:16.785Z,17.80
2022-09-10T16:31:47.047Z,17.70
2022-09-10T16:34:17.550Z,17.70
2022-09-10T16:36:45.837Z,17.70
2022-09-10T16:39:15.555Z,17.60
2022-09-10T16:41:45.135Z,17.60
2022-09-10T16:44:14.779Z,17.60
2022-09-10T16:46:42.543Z,17.60
2022-09-10T16:49:14.358Z,17.60
2022-09-10T16:51:42.893Z,17.60
2022-09-10T16:54:10.483Z,17.50
2022-09-10T16:56:40.130Z,17.50
2022-09-10T16:59:09.666Z,17.50
2022-09-10T17:01:37.382Z,17.50
2022-09-10T17:04:07.601Z,17.50
2022-09-10T17:06:35.154Z,17.50
2022-09-10T17:09:02.511Z,17.50
2022-09-10T17:11:31.881Z,17.50
2022-09-10T17:14:01.294Z,17.50
2022-09-10T17:16:34.225Z,17.50
2022-09-10T17:19:09.135Z,17.40
2022-09-10T17:21:38.766Z,17.40
2022-09-10T17:24:08.892Z,17.30
2022-09-10T17:26:37.185Z,17.20
2022-09-10T17:29:12.860Z,17.20
2022-09-10T17:31:40.160Z,17.20
2022-09-10T17:34:07.656Z,17.20
2022-09-10T17:36:35.001Z,17.20
2022-09-10T17:39:01.859Z,17.20
2022-09-10T17:41:29.933Z,17.20
2022-09-10T17:43:58.976Z,17.20
2022-09-10T17:46:26.744Z,17.20
2022-09-10T17:48:54.930Z,17.10
2022-09-10T17:51:24.398Z,17.10
2022-09-10T17:53:54.009Z,17.20
2022-09-10T17:56:21.698Z,17.20
2022-09-10T17:58:48.811Z,17.20
2022-09-10T18:01:23.505Z,17.20
2022-09-10T18:03:51.490Z,17.30
2022-09-10T18:06:18.768Z,17.30
2022-09-10T18:08:45.561Z,17.30
2022-09-10T18:11:13.776Z,17.30
2022-09-10T18:13:40.950Z,17.30
2022-09-10T18:16:10.707Z,17.30
2022-09-10T18:18:38.661Z,17.30
2022-09-10T18:21:11.938Z,17.30
2022-09-10T18:23:39.242Z,17.40
2022-09-10T18:26:19.320Z,17.30
2022-09-10T18:29:03.759Z,17.30
2022-09-10T18:31:33.878Z,17.30
2022-09-10T18:34:01.885Z,17.30
2022-09-10T18:36:30.327Z,17.30
2022-09-10T18:38:57.478Z,17.30
2022-09-10T18:41:27.061Z,17.30
2022-09-10T18:43:56.675Z,17.30
2022-09-10T18:46:24.592Z,17.40
2022-09-10T18:48:52.270Z,17.40
2022-09-10T18:51:24.948Z,17.40
2022-09-10T18:53:58.304Z,17.30
2022-09-10T18:56:28.491Z,17.30
2022-09-10T18:58:58.835Z,17.30
2022-09-10T19:01:28.555Z,17.30
2022-09-10T19:03:57.592Z,17.30
2022-09-10T19:06:27.663Z,17.40
2022-09-10T19:09:06.549Z,17.40
2022-09-10T19:11:35.987Z,17.40
2022-09-10T19:14:05.075Z,17.30
2022-09-10T19:16:33.677Z,17.30
2022-09-10T19:19:03.926Z,17.30
2022-09-10T19:21:32.811Z,17.30
2022-09-10T19:24:00.781Z,17.30
2022-09-10T19:26:33.310Z,17.30
2022-09-10T19:29:01.902Z,17.30
2022-09-10T19:31:32.062Z,17.30
2022-09-10T19:34:01.114Z,17.30
2022-09-10T19:36:30.446Z,17.30
2022-09-10T19:38:59.547Z,17.20
2022-09-10T19:41:26.524Z,17.20
2022-09-10T19:43:54.935Z,17.20
2022-09-10T19:46:24.923Z,17.20
2022-09-10T19:48:55.014Z,17.20
2022-09-10T19:51:21.846Z,17.20
2022-09-10T19:53:49.609Z,17.30
2022-09-10T19:56:25.464Z,17.30
2022-09-10T19:58:55.642Z,17.30
2022-09-10T20:01:28.270Z,17.30
2022-09-10T20:03:55.912Z,17.30
2022-09-10T20:06:25.851Z,17.30
2022-09-10T20:08:52.814Z,17.30
2022-09-10T20:11:22.194Z,17.30
2022-09-10T20:13:50.072Z,17.30
2022-09-10T20:16:17.453Z,17.30
2022-09-10T20:18:45.463Z,17.20
2022-09-10T20:21:18.009Z,17.20
2022-09-10T20:23:47.829Z,17.20
2022-09-10T20:26:22.719Z,17.20
2022-09-10T20:29:13.971Z,17.20
2022-09-10T20:31:42.404Z,17.20
2022-09-10T20:34:13.019Z,17.20
2022-09-10T20:36:42.257Z,17.10
2022-09-10T20:39:11.262Z,17.10
2022-09-10T20:41:40.009Z,17.10
2022-09-10T20:44:06.856Z,17.10
2022-09-10T20:46:34.494Z,17.10
2022-09-10T20:49:04.657Z,17.10
2022-09-10T20:51:34.405Z,17.10
2022-09-10T20:54:02.249Z,17.20
2022-09-10T20:56:29.510Z,17.10
2022-09-10T20:58:57.484Z,17.20
2022-09-10T21:01:26.922Z,17.20
2022-09-10T21:03:57.264Z,17.20
2022-09-10T21:06:27.232Z,17.20
2022-09-10T21:08:57.819Z,17.20
2022-09-10T21:11:27.533Z,17.10
2022-09-10T21:13:56.968Z,17.10
2022-09-10T21:16:29.202Z,17.10
2022-09-10T21:18:58.218Z,17.10
2022-09-10T21:21:27.959Z,17.10
2022-09-10T21:23:57.419Z,17.10
2022-09-10T21:26:30.080Z,17.10
2022-09-10T21:28:58.843Z,17.10
2022-09-10T21:31:27.302Z,17.10
2022-09-10T21:34:00.630Z,17.00
2022-09-10T21:36:30.094Z,17.00
2022-09-10T21:38:59.539Z,17.00
2022-09-10T21:41:32.807Z,17.00
2022-09-10T21:44:01.206Z,17.00
2022-09-10T21:46:28.506Z,17.00
2022-09-10T21:48:55.593Z,17.00
2022-09-10T21:51:23.377Z,17.10
2022-09-10T21:53:56.417Z,17.10
2022-09-10T21:56:25.933Z,17.00
2022-09-10T21:58:53.723Z,17.00
2022-09-10T22:01:26.571Z,17.00
2022-09-10T22:03:56.715Z,17.00
2022-09-10T22:06:25.710Z,16.90
2022-09-10T22:08:56.188Z,16.90
2022-09-10T22:11:31.890Z,16.90
2022-09-10T22:14:05.216Z,16.90
2022-09-10T22:16:33.468Z,16.90
2022-09-10T22:19:04.955Z,16.90
2022-09-10T22:21:32.463Z,16.90
2022-09-10T22:23:59.450Z,16.90
2022-09-10T22:26:28.253Z,16.90
2022-09-10T22:28:59.319Z,16.90
2022-09-10T22:31:29.591Z,16.90
2022-09-10T22:33:59.356Z,16.90
2022-09-10T22:36:32.481Z,16.90
2022-09-10T22:39:01.608Z,16.90
2022-09-10T22:41:29.836Z,16.90
2022-09-10T22:43:57.114Z,16.90
2022-09-10T22:46:24.387Z,16.90
2022-09-10T22:48:51.256Z,16.80
2022-09-10T22:51:22.596Z,16.80
2022-09-10T22:53:50.780Z,16.70
2022-09-10T22:56:18.697Z,16.70
2022-09-10T22:58:46.225Z,16.60
2022-09-10T23:01:15.949Z,16.50
2022-09-10T23:03:44.315Z,16.50
2022-09-10T23:06:17.634Z,16.40
2022-09-10T23:08:46.725Z,16.40
2022-09-10T23:11:17.878Z,16.50
2022-09-10T23:13:47.099Z,16.50
2022-09-10T23:16:17.887Z,16.50
2022-09-10T23:18:51.861Z,16.50
2022-09-10T23:21:19.880Z,16.50
2022-09-10T23:23:52.197Z,16.50
2022-09-10T23:26:19.390Z,16.50
2022-09-10T23:28:46.705Z,16.50
2022-09-10T23:31:16.592Z,16.50
2022-09-10T23:33:46.709Z,16.60
2022-09-10T23:36:13.885Z,16.60
2022-09-10T23:38:42.285Z,16.60
2022-09-10T23:41:11.909Z,16.60
2022-09-10T23:43:40.477Z,16.60
2022-09-10T23:46:09.003Z,16.50
2022-09-10T23:48:36.939Z,16.50
2022-09-10T23:51:06.415Z,16.30
2022-09-10T23:53:33.567Z,16.20
2022-09-10T23:56:02.746Z,16.20
2022-09-10T23:58:29.795Z,16.20
